createdAt,value
2023-03-19T00:01:53.775Z,4.70
2023-03-19T00:03:55.481Z,4.50
2023-03-19T00:06:06.308Z,4.13
2023-03-19T00:08:07.859Z,4.03
2023-03-19T00:10:09.808Z,4.20
2023-03-19T00:12:12.051Z,4.25
2023-03-19T00:14:16.661Z,4.00
2023-03-19T00:16:18.278Z,3.95
2023-03-19T00:18:20.284Z,4.10
2023-03-19T00:20:22.668Z,4.47
2023-03-19T00:22:24.659Z,4.20
2023-03-19T00:24:26.471Z,4.43
2023-03-19T00:26:29.077Z,4.10
2023-03-19T00:28:33.432Z,4.03
2023-03-19T00:30:35.216Z,4.35
2023-03-19T00:32:37.216Z,4.45
2023-03-19T00:34:39.054Z,4.40
2023-03-19T00:36:40.524Z,4.35
2023-03-19T00:38:43.366Z,4.45
2023-03-19T00:40:44.851Z,4.38
2023-03-19T00:42:47.516Z,4.43
2023-03-19T00:44:49.079Z,4.40
2023-03-19T00:46:50.669Z,4.30
2023-03-19T00:48:55.327Z,4.20
2023-03-19T00:51:02.736Z,4.40
2023-03-19T00:53:04.417Z,4.80
2023-03-19T00:55:07.959Z,4.57
2023-03-19T00:57:09.751Z,4.95
2023-03-19T00:59:11.241Z,3.95
2023-03-19T01:01:15.001Z,4.55
2023-03-19T01:03:17.615Z,4.20
2023-03-19T01:05:21.636Z,4.65
2023-03-19T01:07:23.592Z,4.28
2023-03-19T01:09:25.097Z,4.50
2023-03-19T01:11:28.684Z,4.10
2023-03-19T01:13:30.579Z,4.32
2023-03-19T01:15:39.148Z,4.50
2023-03-19T01:17:42.347Z,3.58
2023-03-19T01:19:43.791Z,4.63
2023-03-19T01:21:46.451Z,4.18
2023-03-19T01:23:54.179Z,4.20
2023-03-19T01:25:57.680Z,3.75
2023-03-19T01:28:01.958Z,4.40
2023-03-19T01:30:04.209Z,4.20
2023-03-19T01:32:26.713Z,4.40
2023-03-19T01:34:48.605Z,4.35
2023-03-19T01:36:52.509Z,4.30
2023-03-19T01:39:04.389Z,4.60
2023-03-19T01:41:06.885Z,4.20
2023-03-19T01:43:19.141Z,4.15
2023-03-19T01:45:35.951Z,4.68
2023-03-19T01:47:57.709Z,3.97
2023-03-19T01:50:23.494Z,4.07
2023-03-19T01:52:34.713Z,3.92
2023-03-19T01:54:55.032Z,3.90
2023-03-19T01:57:22.698Z,3.90
2023-03-19T01:59:34.699Z,3.95
2023-03-19T02:01:50.720Z,3.72
2023-03-19T02:03:52.946Z,3.78
2023-03-19T02:06:03.437Z,3.65
2023-03-19T02:08:08.851Z,4.15
2023-03-19T02:10:14.099Z,4.40
2023-03-19T02:12:17.561Z,3.80
2023-03-19T02:14:19.360Z,4.15
2023-03-19T02:16:21.250Z,4.32
2023-03-19T02:18:27.287Z,3.78
2023-03-19T02:20:35.773Z,4.10
2023-03-19T02:22:42.682Z,3.75
2023-03-19T02:25:17.185Z,4.10
2023-03-19T02:27:23.984Z,4.00
2023-03-19T02:29:26.515Z,4.30
2023-03-19T02:31:30.698Z,3.88
2023-03-19T02:33:32.536Z,4.00
2023-03-19T02:35:38.553Z,3.90
2023-03-19T02:37:40.445Z,3.70
2023-03-19T02:39:47.173Z,3.83
2023-03-19T02:41:51.725Z,4.22
2023-03-19T02:43:54.222Z,3.90
2023-03-19T02:45:56.223Z,4.28
2023-03-19T02:47:57.868Z,3.78
2023-03-19T02:50:01.286Z,4.10
2023-03-19T02:52:02.813Z,4.10
2023-03-19T02:54:07.311Z,4.03
2023-03-19T02:56:08.870Z,4.15
2023-03-19T02:58:12.688Z,3.60
2023-03-19T03:00:17.155Z,3.80
2023-03-19T03:02:19.068Z,4.03
2023-03-19T03:04:24.342Z,4.03
2023-03-19T03:06:26.054Z,4.10
2023-03-19T03:08:28.171Z,4.13
2023-03-19T03:10:30.701Z,4.30
2023-03-19T03:12:32.738Z,4.20
2023-03-19T03:14:35.153Z,3.97
2023-03-19T03:16:37.943Z,4.25
2023-03-19T03:18:39.513Z,4.30
2023-03-19T03:20:41.005Z,4.30
2023-03-19T03:22:42.854Z,4.32
2023-03-19T03:24:44.628Z,4.40
2023-03-19T03:26:46.164Z,4.50
2023-03-19T03:28:50.148Z,4.72
2023-03-19T03:30:51.739Z,4.60
2023-03-19T03:32:59.261Z,4.43
2023-03-19T03:35:01.045Z,4.28
2023-03-19T03:37:02.485Z,4.25
2023-03-19T03:39:05.621Z,4.30
2023-03-19T03:41:12.222Z,4.47
2023-03-19T03:43:16.564Z,4.40
2023-03-19T03:45:19.056Z,4.10
2023-03-19T03:47:20.599Z,4.57
2023-03-19T03:49:22.805Z,4.30
2023-03-19T03:51:26.912Z,4.75
2023-03-19T03:53:28.562Z,4.53
2023-03-19T03:55:31.776Z,4.55
2023-03-19T03:57:33.683Z,3.92
2023-03-19T03:59:38.180Z,5.10
2023-03-19T04:01:39.821Z,4.50
2023-03-19T04:03:41.513Z,4.30
2023-03-19T04:05:44.679Z,3.72
2023-03-19T04:07:49.606Z,3.83
2023-03-19T04:09:54.039Z,3.63
2023-03-19T04:11:55.749Z,3.15
2023-03-19T04:13:57.799Z,4.10
2023-03-19T04:16:01.078Z,3.72
2023-03-19T04:18:03.144Z,3.60
2023-03-19T04:20:05.031Z,4.07
2023-03-19T04:22:08.457Z,3.88
2023-03-19T04:24:10.545Z,4.38
2023-03-19T04:26:12.278Z,4.20
2023-03-19T04:28:13.803Z,3.88
2023-03-19T04:30:16.313Z,3.78
2023-03-19T04:32:18.319Z,3.78
2023-03-19T04:34:20.933Z,4.05
2023-03-19T04:36:22.437Z,4.20
2023-03-19T04:38:28.550Z,3.75
2023-03-19T04:40:36.169Z,4.30
2023-03-19T04:42:38.016Z,4.60
2023-03-19T04:44:50.765Z,4.38
2023-03-19T04:46:52.573Z,4.72
2023-03-19T04:48:56.153Z,5.05
2023-03-19T04:50:58.298Z,4.35
2023-03-19T04:53:02.838Z,4.28
2023-03-19T04:55:07.561Z,4.80
2023-03-19T04:57:21.245Z,5.25
2023-03-19T04:59:23.992Z,4.93
2023-03-19T05:01:26.185Z,5.22
2023-03-19T05:03:34.921Z,5.00
2023-03-19T05:05:36.355Z,4.80
2023-03-19T05:07:42.245Z,4.70
2023-03-19T05:09:46.334Z,5.10
2023-03-19T05:11:49.328Z,5.00
2023-03-19T05:13:54.460Z,5.38
2023-03-19T05:15:56.663Z,5.82
2023-03-19T05:17:58.887Z,5.57
2023-03-19T05:20:11.787Z,5.72
2023-03-19T05:22:19.876Z,5.60
2023-03-19T05:24:21.420Z,5.47
2023-03-19T05:26:23.551Z,6.07
2023-03-19T05:28:43.174Z,5.93
2023-03-19T05:30:45.688Z,5.28
2023-03-19T05:33:00.013Z,4.93
2023-03-19T05:35:29.513Z,5.13
2023-03-19T05:37:31.928Z,4.70
2023-03-19T05:39:35.131Z,4.95
2023-03-19T05:41:40.925Z,4.65
2023-03-19T05:43:45.732Z,4.70
2023-03-19T05:45:59.028Z,4.55
2023-03-19T05:48:05.655Z,4.30
2023-03-19T05:50:13.285Z,4.55
2023-03-19T05:52:22.412Z,4.25
2023-03-19T05:54:24.842Z,5.30
2023-03-19T05:57:03.465Z,4.78
2023-03-19T05:59:08.797Z,5.07
2023-03-19T06:01:14.907Z,5.20
2023-03-19T06:03:16.686Z,5.18
2023-03-19T06:05:23.753Z,5.40
2023-03-19T06:07:28.386Z,5.22
2023-03-19T06:09:30.394Z,5.68
2023-03-19T06:11:32.163Z,5.47
2023-03-19T06:13:56.827Z,5.95
2023-03-19T06:15:58.559Z,5.72
2023-03-19T06:18:05.933Z,5.45
2023-03-19T06:20:07.798Z,6.03
2023-03-19T06:22:09.882Z,5.53
2023-03-19T06:24:11.405Z,6.05
2023-03-19T06:26:13.319Z,6.32
2023-03-19T06:28:23.409Z,6.32
2023-03-19T06:30:25.592Z,6.45
2023-03-19T06:32:28.150Z,6.57
2023-03-19T06:34:30.812Z,6.20
2023-03-19T06:36:32.428Z,6.82
2023-03-19T06:38:36.845Z,5.85
2023-03-19T06:40:38.430Z,5.82
2023-03-19T06:42:39.955Z,6.35
2023-03-19T06:44:43.209Z,6.97
2023-03-19T06:46:45.121Z,6.68
2023-03-19T06:48:46.573Z,6.57
2023-03-19T06:50:48.299Z,6.72
2023-03-19T06:52:50.257Z,5.85
2023-03-19T06:54:52.006Z,8.23
2023-03-19T06:56:55.071Z,6.47
2023-03-19T06:58:56.522Z,6.80
2023-03-19T07:00:58.153Z,6.57
2023-03-19T07:02:59.956Z,6.75
2023-03-19T07:05:07.802Z,7.03
2023-03-19T07:07:12.258Z,6.60
2023-03-19T07:09:13.902Z,7.05
2023-03-19T07:11:16.612Z,7.78
2023-03-19T07:13:18.012Z,6.85
2023-03-19T07:15:22.720Z,7.13
2023-03-19T07:17:25.591Z,6.15
2023-03-19T07:19:27.179Z,6.95
2023-03-19T07:21:29.058Z,6.85
2023-03-19T07:23:30.902Z,6.32
2023-03-19T07:25:35.447Z,6.20
2023-03-19T07:27:38.938Z,5.70
2023-03-19T07:29:40.634Z,6.10
2023-03-19T07:31:44.785Z,6.32
2023-03-19T07:33:46.260Z,5.55
2023-03-19T07:35:47.998Z,5.65
2023-03-19T07:37:53.171Z,5.95
2023-03-19T07:39:54.770Z,5.53
2023-03-19T07:41:56.269Z,5.72
2023-03-19T07:43:58.329Z,5.38
2023-03-19T07:46:00.875Z,5.70
2023-03-19T07:48:06.615Z,5.63
2023-03-19T07:50:09.205Z,5.45
2023-03-19T07:52:11.193Z,5.72
2023-03-19T07:54:12.898Z,6.05
2023-03-19T07:56:19.739Z,6.05
2023-03-19T07:58:21.511Z,5.45
2023-03-19T08:00:23.105Z,5.90
2023-03-19T08:02:24.657Z,6.05
2023-03-19T08:04:26.108Z,5.50
2023-03-19T08:06:33.521Z,6.05
2023-03-19T08:08:35.046Z,5.93
2023-03-19T08:10:38.481Z,5.68
2023-03-19T08:12:41.262Z,5.40
2023-03-19T08:14:42.777Z,6.05
2023-03-19T08:16:44.325Z,6.85
2023-03-19T08:18:45.767Z,6.45
2023-03-19T08:20:53.580Z,6.18
2023-03-19T08:22:56.490Z,6.20
2023-03-19T08:24:57.909Z,6.25
2023-03-19T08:26:59.453Z,5.82
2023-03-19T08:29:01.651Z,6.30
2023-03-19T08:31:10.753Z,6.15
2023-03-19T08:33:12.741Z,5.53
2023-03-19T08:35:14.323Z,5.85
2023-03-19T08:37:15.910Z,5.50
2023-03-19T08:39:17.364Z,6.10
2023-03-19T08:41:18.819Z,5.20
2023-03-19T08:43:23.123Z,5.05
2023-03-19T08:45:28.162Z,5.22
2023-03-19T08:47:29.707Z,5.25
2023-03-19T08:49:34.294Z,4.95
2023-03-19T08:51:36.351Z,4.50
2023-03-19T08:53:38.682Z,4.03
2023-03-19T08:55:40.241Z,4.68
2023-03-19T08:57:41.847Z,5.03
2023-03-19T08:59:45.170Z,5.43
2023-03-19T09:01:50.863Z,4.68
2023-03-19T09:03:52.463Z,4.72
2023-03-19T09:05:54.061Z,4.93
2023-03-19T09:07:55.630Z,4.93
2023-03-19T09:09:57.143Z,4.55
2023-03-19T09:11:58.733Z,4.57
2023-03-19T09:14:00.548Z,4.43
2023-03-19T09:16:02.390Z,4.30
2023-03-19T09:18:04.052Z,4.35
2023-03-19T09:20:07.330Z,4.20
2023-03-19T09:22:08.893Z,4.18
2023-03-19T09:24:10.907Z,4.13
2023-03-19T09:26:15.290Z,3.90
2023-03-19T09:28:17.248Z,4.50
2023-03-19T09:30:18.842Z,4.22
2023-03-19T09:32:20.979Z,4.03
2023-03-19T09:34:22.959Z,3.75
2023-03-19T09:36:25.284Z,3.50
2023-03-19T09:38:28.325Z,3.63
2023-03-19T09:40:33.716Z,3.60
2023-03-19T09:42:50.754Z,3.22
2023-03-19T09:44:57.341Z,3.58
2023-03-19T09:47:19.613Z,3.53
2023-03-19T09:49:27.500Z,3.03
2023-03-19T09:51:39.988Z,3.33
2023-03-19T09:54:00.630Z,3.20
2023-03-19T09:56:05.559Z,3.38
2023-03-19T09:58:18.433Z,3.50
2023-03-19T10:00:32.432Z,3.22
2023-03-19T10:02:44.030Z,3.47
2023-03-19T10:05:13.047Z,3.50
2023-03-19T10:07:34.370Z,3.50
2023-03-19T10:10:07.752Z,4.05
2023-03-19T10:12:28.162Z,5.35
2023-03-19T10:15:01.418Z,6.55
2023-03-19T10:17:07.114Z,6.50
2023-03-19T10:19:16.327Z,6.38
2023-03-19T10:21:46.964Z,5.50
2023-03-19T10:24:03.301Z,5.10
2023-03-19T10:26:13.210Z,4.45
2023-03-19T10:28:20.973Z,4.57
2023-03-19T10:30:25.399Z,4.32
2023-03-19T10:32:40.810Z,3.90
2023-03-19T10:34:51.949Z,3.45
2023-03-19T10:37:20.569Z,3.42
2023-03-19T10:39:22.380Z,3.13
2023-03-19T10:41:38.825Z,3.03
2023-03-19T10:43:42.064Z,3.08
2023-03-19T10:45:43.654Z,3.47
2023-03-19T10:47:45.168Z,3.90
2023-03-19T10:49:46.701Z,4.20
2023-03-19T10:51:48.952Z,4.60
2023-03-19T10:53:53.107Z,4.05
2023-03-19T10:56:06.229Z,3.85
2023-03-19T10:58:20.718Z,3.40
2023-03-19T11:00:28.974Z,4.22
2023-03-19T11:02:32.267Z,4.03
2023-03-19T11:04:33.782Z,3.53
2023-03-19T11:06:37.778Z,3.40
2023-03-19T11:08:39.678Z,3.42
2023-03-19T11:10:47.331Z,3.03
2023-03-19T11:12:57.836Z,3.40
2023-03-19T11:15:02.919Z,2.90
2023-03-19T11:17:19.012Z,2.70
2023-03-19T11:19:23.134Z,2.33
2023-03-19T11:21:32.854Z,2.50
2023-03-19T11:23:42.733Z,2.47
2023-03-19T11:25:53.143Z,2.65
2023-03-19T11:28:01.026Z,2.58
2023-03-19T11:30:12.680Z,2.70
2023-03-19T11:32:33.550Z,2.97
2023-03-19T11:34:51.373Z,2.45
2023-03-19T11:37:23.491Z,2.85
2023-03-19T11:39:30.456Z,2.50
2023-03-19T11:41:37.869Z,2.10
2023-03-19T11:43:59.398Z,2.50
2023-03-19T11:46:20.037Z,2.67
2023-03-19T11:48:32.126Z,2.65
2023-03-19T11:50:47.757Z,2.40
2023-03-19T11:53:17.588Z,2.50
2023-03-19T11:55:38.215Z,2.72
2023-03-19T11:57:46.433Z,2.55
2023-03-19T12:00:03.692Z,2.85
2023-03-19T12:02:41.914Z,2.58
2023-03-19T12:05:08.094Z,2.30
2023-03-19T12:07:31.834Z,2.10
2023-03-19T12:10:01.465Z,1.98
2023-03-19T12:12:09.645Z,2.22
2023-03-19T12:14:56.147Z,1.90
2023-03-19T12:17:05.992Z,2.03
2023-03-19T12:19:30.372Z,1.77
2023-03-19T12:21:49.660Z,1.60
2023-03-19T12:24:03.000Z,1.50
2023-03-19T12:26:18.078Z,2.03
2023-03-19T12:28:28.491Z,1.60
2023-03-19T12:30:48.112Z,1.52
2023-03-19T12:33:34.752Z,1.80
2023-03-19T12:35:39.009Z,1.67
2023-03-19T12:37:46.636Z,1.90
2023-03-19T12:40:17.109Z,1.85
2023-03-19T12:42:21.085Z,1.85
2023-03-19T12:44:37.476Z,1.58
2023-03-19T12:47:07.001Z,1.55
2023-03-19T12:49:36.435Z,1.65
2023-03-19T12:51:43.894Z,1.52
2023-03-19T12:53:57.267Z,1.48
2023-03-19T12:56:06.699Z,1.55
2023-03-19T12:58:39.359Z,1.52
2023-03-19T13:00:47.970Z,1.40
2023-03-19T13:03:13.573Z,1.38
2023-03-19T13:05:14.939Z,1.40
2023-03-19T13:07:40.482Z,1.58
2023-03-19T13:09:53.013Z,1.52
2023-03-19T13:12:02.842Z,1.63
2023-03-19T13:14:18.874Z,1.48
2023-03-19T13:16:33.236Z,1.38
2023-03-19T13:18:51.406Z,1.35
2023-03-19T13:21:18.423Z,1.40
2023-03-19T13:23:27.335Z,1.17
2023-03-19T13:25:38.372Z,1.38
2023-03-19T13:27:39.948Z,1.52
2023-03-19T13:29:55.932Z,1.45
2023-03-19T13:32:10.180Z,1.27
2023-03-19T13:34:17.912Z,1.20
2023-03-19T13:36:20.847Z,1.27
2023-03-19T13:38:27.891Z,1.23
2023-03-19T13:40:37.604Z,1.13
2023-03-19T13:42:43.637Z,1.25
2023-03-19T13:45:03.138Z,1.25
2023-03-19T13:47:26.954Z,1.40
2023-03-19T13:49:32.089Z,1.48
2023-03-19T13:51:37.657Z,1.33
2023-03-19T13:53:53.862Z,1.50
2023-03-19T13:55:59.573Z,1.33
2023-03-19T13:58:38.131Z,1.20
2023-03-19T14:00:42.867Z,1.40
2023-03-19T14:02:47.966Z,1.70
2023-03-19T14:04:52.865Z,1.25
2023-03-19T14:07:19.239Z,1.27
2023-03-19T14:09:48.545Z,1.50
2023-03-19T14:11:50.248Z,1.00
2023-03-19T14:13:53.954Z,1.35
2023-03-19T14:16:05.017Z,1.40
2023-03-19T14:18:14.713Z,1.10
2023-03-19T14:20:21.041Z,1.25
2023-03-19T14:22:38.814Z,1.20
2023-03-19T14:24:58.513Z,1.10
2023-03-19T14:27:15.238Z,1.05
2023-03-19T14:29:16.901Z,1.25
2023-03-19T14:31:26.671Z,1.27
2023-03-19T14:33:41.733Z,1.20
2023-03-19T14:35:46.909Z,1.23
2023-03-19T14:37:54.237Z,1.52
2023-03-19T14:40:09.702Z,1.30
2023-03-19T14:42:20.275Z,1.20
2023-03-19T14:44:43.373Z,0.93
2023-03-19T14:47:05.760Z,1.42
2023-03-19T14:49:27.907Z,1.30
2023-03-19T14:51:49.287Z,1.45
2023-03-19T14:53:55.473Z,1.48
2023-03-19T14:56:11.856Z,1.60
2023-03-19T14:58:13.553Z,1.42
2023-03-19T15:00:19.279Z,1.40
2023-03-19T15:02:40.279Z,1.35
2023-03-19T15:04:46.534Z,1.25
2023-03-19T15:07:01.064Z,1.20
2023-03-19T15:09:04.490Z,1.17
2023-03-19T15:11:11.685Z,1.23
2023-03-19T15:13:31.102Z,1.30
2023-03-19T15:15:57.921Z,1.40
2023-03-19T15:18:11.953Z,1.55
2023-03-19T15:20:18.908Z,1.30
2023-03-19T15:22:34.863Z,1.65
2023-03-19T15:24:36.453Z,1.60
2023-03-19T15:26:37.981Z,1.83
2023-03-19T15:28:49.565Z,1.50
2023-03-19T15:31:08.574Z,1.88
2023-03-19T15:35:44.292Z,1.88
2023-03-19T15:37:51.815Z,1.38
2023-03-19T15:39:56.301Z,1.30
2023-03-19T15:42:03.072Z,1.50
2023-03-19T15:44:08.709Z,1.30
2023-03-19T15:46:15.297Z,1.40
2023-03-19T15:48:19.683Z,1.30
2023-03-19T15:50:25.638Z,1.52
2023-03-19T15:52:31.902Z,1.10
2023-03-19T15:54:34.414Z,1.10
2023-03-19T15:56:36.273Z,1.17
2023-03-19T15:58:42.712Z,1.10
2023-03-19T16:00:44.438Z,1.30
2023-03-19T16:02:50.211Z,1.02
2023-03-19T16:05:20.592Z,1.17
2023-03-19T16:07:24.516Z,1.30
2023-03-19T16:09:33.095Z,1.30
2023-03-19T16:11:37.532Z,1.20
2023-03-19T16:13:39.546Z,1.27
2023-03-19T16:15:46.156Z,1.48
2023-03-19T16:17:49.353Z,1.42
2023-03-19T16:19:58.584Z,1.35
2023-03-19T16:22:01.276Z,1.13
2023-03-19T16:24:14.909Z,1.35
2023-03-19T16:26:20.724Z,1.15
2023-03-19T16:28:23.956Z,1.48
2023-03-19T16:30:28.065Z,1.20
2023-03-19T16:32:31.820Z,1.42
2023-03-19T16:34:47.173Z,1.40
2023-03-19T16:36:48.909Z,1.50
2023-03-19T16:39:13.712Z,1.45
2023-03-19T16:41:16.603Z,1.33
2023-03-19T16:43:23.513Z,1.50
2023-03-19T16:45:31.080Z,1.40
2023-03-19T16:47:32.730Z,1.23
2023-03-19T16:49:34.254Z,1.40
2023-03-19T16:51:40.574Z,1.23
2023-03-19T16:53:42.320Z,1.50
2023-03-19T16:55:43.998Z,1.30
2023-03-19T16:57:50.622Z,1.40
2023-03-19T16:59:52.325Z,1.60
2023-03-19T17:01:54.033Z,1.40
2023-03-19T17:03:55.928Z,1.50
2023-03-19T17:05:57.582Z,1.63
2023-03-19T17:07:59.121Z,1.80
2023-03-19T17:10:00.558Z,1.45
2023-03-19T17:12:03.948Z,1.73
2023-03-19T17:14:07.648Z,1.80
2023-03-19T17:16:09.310Z,1.95
2023-03-19T17:18:20.735Z,1.40
2023-03-19T17:20:27.962Z,1.55
2023-03-19T17:22:29.613Z,1.58
2023-03-19T17:24:33.689Z,1.30
2023-03-19T17:26:35.187Z,1.35
2023-03-19T17:28:37.180Z,1.52
2023-03-19T17:30:39.313Z,1.40
2023-03-19T17:32:45.793Z,1.40
2023-03-19T17:34:47.322Z,1.40
2023-03-19T17:36:56.303Z,1.10
2023-03-19T17:38:58.229Z,1.50
2023-03-19T17:40:59.852Z,1.83
2023-03-19T17:43:01.582Z,1.90
2023-03-19T17:45:04.714Z,2.35
2023-03-19T17:47:06.342Z,2.67
2023-03-19T17:49:15.735Z,3.20
2023-03-19T17:51:22.234Z,3.40
2023-03-19T17:53:23.739Z,3.92
2023-03-19T17:55:28.283Z,4.38
2023-03-19T17:57:29.947Z,4.80
2023-03-19T17:59:31.773Z,4.63
2023-03-19T18:01:33.405Z,5.10
2023-03-19T18:03:36.241Z,4.22
2023-03-19T18:05:37.668Z,4.22
2023-03-19T18:07:39.309Z,4.07
2023-03-19T18:09:40.938Z,3.60
2023-03-19T18:11:42.734Z,3.05
2023-03-19T18:13:44.252Z,3.10
2023-03-19T18:15:46.860Z,2.95
2023-03-19T18:17:51.913Z,3.03
2023-03-19T18:19:54.332Z,3.65
2023-03-19T18:21:56.117Z,3.67
2023-03-19T18:23:57.875Z,3.35
2023-03-19T18:25:59.644Z,2.90
2023-03-19T18:28:03.509Z,2.72
2023-03-19T18:30:05.768Z,1.77
2023-03-19T18:32:16.902Z,1.40
2023-03-19T18:34:18.519Z,1.60
2023-03-19T18:36:24.510Z,1.30
2023-03-19T18:38:27.892Z,1.50
2023-03-19T18:40:32.829Z,1.30
2023-03-19T18:42:34.343Z,1.40
2023-03-19T18:44:35.888Z,1.05
2023-03-19T18:46:39.193Z,1.50
2023-03-19T18:48:40.912Z,1.45
2023-03-19T18:50:42.634Z,1.30
2023-03-19T18:52:49.480Z,1.50
2023-03-19T18:54:51.086Z,1.90
2023-03-19T18:56:54.752Z,1.60
2023-03-19T18:58:58.523Z,1.80
2023-03-19T19:01:04.545Z,1.85
2023-03-19T19:03:07.321Z,1.58
2023-03-19T19:05:15.468Z,1.90
2023-03-19T19:07:17.328Z,1.70
2023-03-19T19:09:18.828Z,1.70
2023-03-19T19:11:21.820Z,1.50
2023-03-19T19:13:26.161Z,1.30
2023-03-19T19:15:34.355Z,1.10
2023-03-19T19:17:39.123Z,1.30
2023-03-19T19:19:42.917Z,0.98
2023-03-19T19:21:45.214Z,1.35
2023-03-19T19:23:46.975Z,1.55
2023-03-19T19:25:55.213Z,1.83
2023-03-19T19:28:03.017Z,1.58
2023-03-19T19:30:05.769Z,1.90
2023-03-19T19:32:19.515Z,1.45
2023-03-19T19:34:21.856Z,1.30
2023-03-19T19:36:24.639Z,1.50
2023-03-19T19:38:26.529Z,1.83
2023-03-19T19:40:31.179Z,2.10
2023-03-19T19:42:32.727Z,2.30
2023-03-19T19:44:36.538Z,2.78
2023-03-19T19:46:38.114Z,2.78
2023-03-19T19:48:39.755Z,3.33
2023-03-19T19:50:41.564Z,3.53
2023-03-19T19:52:43.550Z,4.32
2023-03-19T19:54:49.020Z,4.63
2023-03-19T19:56:54.017Z,4.18
2023-03-19T19:58:58.973Z,4.15
2023-03-19T20:01:04.332Z,4.60
2023-03-19T20:03:06.219Z,5.53
2023-03-19T20:05:15.928Z,4.80
2023-03-19T20:07:17.808Z,4.82
2023-03-19T20:09:36.064Z,4.38
2023-03-19T20:11:41.176Z,4.00
2023-03-19T20:13:54.454Z,3.13
2023-03-19T20:15:58.251Z,2.50
2023-03-19T20:18:02.186Z,2.28
2023-03-19T20:20:04.259Z,1.85
2023-03-19T20:22:05.677Z,1.70
2023-03-19T20:24:07.186Z,2.00
2023-03-19T20:26:25.320Z,1.70
2023-03-19T20:28:34.012Z,1.77
2023-03-19T20:30:38.658Z,1.92
2023-03-19T20:32:40.510Z,2.15
2023-03-19T20:34:42.015Z,2.63
2023-03-19T20:36:43.654Z,2.40
2023-03-19T20:38:45.459Z,2.90
2023-03-19T20:40:58.776Z,2.38
2023-03-19T20:43:05.114Z,2.83
2023-03-19T20:45:07.793Z,2.60
2023-03-19T20:47:19.988Z,2.45
2023-03-19T20:49:21.856Z,2.00
2023-03-19T20:51:26.219Z,1.80
2023-03-19T20:53:28.334Z,1.77
2023-03-19T20:55:32.026Z,1.55
2023-03-19T20:57:33.604Z,1.50
2023-03-19T20:59:35.452Z,1.30
2023-03-19T21:01:39.314Z,1.10
2023-03-19T21:03:41.681Z,1.27
2023-03-19T21:05:43.769Z,1.15
2023-03-19T21:07:50.278Z,1.20
2023-03-19T21:09:52.060Z,1.10
2023-03-19T21:11:53.777Z,1.30
2023-03-19T21:13:55.687Z,1.35
2023-03-19T21:15:57.853Z,1.10
2023-03-19T21:17:59.593Z,1.20
2023-03-19T21:20:02.102Z,1.20
2023-03-19T21:22:05.664Z,1.45
2023-03-19T21:24:14.234Z,1.40
2023-03-19T21:26:19.524Z,1.50
2023-03-19T21:28:34.218Z,1.20
2023-03-19T21:30:43.423Z,1.92
2023-03-19T21:32:45.733Z,2.25
2023-03-19T21:34:49.098Z,2.50
2023-03-19T21:36:50.852Z,2.50
2023-03-19T21:38:52.620Z,2.53
2023-03-19T21:40:57.918Z,2.90
2023-03-19T21:43:02.956Z,3.00
2023-03-19T21:45:04.789Z,2.50
2023-03-19T21:47:06.482Z,1.88
2023-03-19T21:49:12.154Z,1.83
2023-03-19T21:51:14.716Z,1.80
2023-03-19T21:53:19.797Z,2.00
2023-03-19T21:55:21.331Z,1.73
2023-03-19T21:57:25.195Z,1.50
2023-03-19T21:59:35.746Z,1.75
2023-03-19T22:01:37.249Z,1.40
2023-03-19T22:03:38.774Z,1.42
2023-03-19T22:05:41.586Z,1.50
2023-03-19T22:07:43.080Z,1.85
2023-03-19T22:09:47.290Z,1.70
2023-03-19T22:11:48.794Z,1.45
2023-03-19T22:13:50.503Z,1.42
2023-03-19T22:15:54.960Z,1.90
2023-03-19T22:17:58.265Z,1.80
2023-03-19T22:19:59.765Z,1.70
2023-03-19T22:22:01.896Z,1.60
2023-03-19T22:24:03.559Z,1.55
2023-03-19T22:26:28.718Z,1.50
2023-03-19T22:28:32.537Z,1.83
2023-03-19T22:30:37.052Z,1.60
2023-03-19T22:32:38.502Z,1.90
2023-03-19T22:34:40.256Z,1.98
2023-03-19T22:36:41.842Z,2.50
2023-03-19T22:38:45.341Z,2.17
2023-03-19T22:40:50.140Z,2.15
2023-03-19T22:42:51.576Z,1.95
2023-03-19T22:44:54.580Z,2.17
2023-03-19T22:46:58.884Z,1.80
2023-03-19T22:49:01.569Z,1.85
2023-03-19T22:51:04.240Z,2.00
2023-03-19T22:53:21.212Z,1.80
2023-03-19T22:55:25.754Z,1.80
2023-03-19T22:57:27.302Z,1.63
2023-03-19T22:59:31.945Z,1.80
2023-03-19T23:01:41.438Z,1.50
2023-03-19T23:03:43.221Z,1.70
2023-03-19T23:05:48.931Z,1.75
2023-03-19T23:07:55.126Z,1.83
2023-03-19T23:09:56.778Z,1.40
2023-03-19T23:12:00.080Z,1.70
2023-03-19T23:14:02.006Z,1.65
2023-03-19T23:16:03.854Z,1.95
2023-03-19T23:18:17.351Z,1.63
2023-03-19T23:20:21.445Z,1.80
2023-03-19T23:22:22.958Z,1.80
2023-03-19T23:24:25.294Z,1.60
2023-03-19T23:26:29.495Z,1.60
2023-03-19T23:28:33.852Z,1.60
2023-03-19T23:30:35.436Z,1.65
2023-03-19T23:32:46.152Z,1.48
2023-03-19T23:34:59.224Z,1.60
2023-03-19T23:37:03.367Z,1.70
2023-03-19T23:39:09.467Z,1.73
2023-03-19T23:41:26.073Z,1.50
2023-03-19T23:43:28.931Z,1.75
2023-03-19T23:45:34.325Z,1.45
2023-03-19T23:47:36.326Z,1.65
2023-03-19T23:49:37.971Z,1.80
2023-03-19T23:51:42.081Z,1.83
2023-03-19T23:53:44.539Z,1.92
2023-03-19T23:55:54.272Z,2.00
2023-03-19T23:57:56.436Z,2.10
2023-03-19T23:59:58.420Z,1.80
